createdAt,value
2018-09-04T00:00:17.834Z,64.40
2018-09-04T00:01:21.200Z,70.00
2018-09-04T00:02:24.535Z,60.63
2018-09-04T00:03:27.854Z,62.97
2018-09-04T00:04:31.202Z,64.33
2018-09-04T00:05:34.568Z,65.53
2018-09-04T00:06:37.928Z,67.93
2018-09-04T00:07:41.271Z,64.20
2018-09-04T00:08:44.642Z,63.98
2018-09-04T00:09:48.571Z,60.53
2018-09-04T00:10:51.926Z,64.83
2018-09-04T00:11:55.286Z,65.27
2018-09-04T00:12:58.610Z,64.30
2018-09-04T00:14:01.947Z,62.20
2018-09-04T00:15:05.428Z,61.17
2018-09-04T00:16:10.756Z,59.40
2018-09-04T00:17:14.138Z,61.40
2018-09-04T00:18:17.470Z,59.60
2018-09-04T00:19:20.786Z,55.50
2018-09-04T00:20:24.122Z,63.20
2018-09-04T00:21:27.466Z,66.13
2018-09-04T00:22:30.830Z,61.93
2018-09-04T00:23:34.182Z,60.07
2018-09-04T00:24:37.537Z,67.37
2018-09-04T00:25:40.860Z,69.00
2018-09-04T00:26:44.239Z,68.57
2018-09-04T00:27:47.599Z,70.07
2018-09-04T00:28:50.914Z,64.53
2018-09-04T00:29:54.250Z,64.33
2018-09-04T00:30:57.814Z,60.67
2018-09-04T00:32:01.166Z,65.63
2018-09-04T00:33:04.506Z,69.13
2018-09-04T00:34:07.837Z,60.60
2018-09-04T00:35:11.207Z,67.00
2018-09-04T00:36:14.518Z,68.73
2018-09-04T00:37:17.851Z,67.23
2018-09-04T00:38:21.219Z,60.73
2018-09-04T00:39:24.541Z,68.80
2018-09-04T00:40:27.889Z,62.43
2018-09-04T00:41:31.212Z,59.13
2018-09-04T00:42:34.546Z,59.77
2018-09-04T00:43:37.914Z,66.60
2018-09-04T00:44:44.174Z,61.13
2018-09-04T00:45:47.484Z,64.83
2018-09-04T00:46:50.802Z,58.47
2018-09-04T00:47:54.150Z,65.10
2018-09-04T00:48:57.548Z,60.97
2018-09-04T00:50:00.870Z,60.80
2018-09-04T00:51:04.240Z,64.43
2018-09-04T00:52:07.574Z,60.03
2018-09-04T00:53:10.924Z,76.90
2018-09-04T00:54:14.315Z,54.27
2018-09-04T00:55:17.651Z,66.80
2018-09-04T00:56:20.964Z,62.90
2018-09-04T00:57:24.425Z,66.00
2018-09-04T00:58:27.739Z,64.33
2018-09-04T00:59:31.047Z,64.30
2018-09-04T01:00:34.362Z,69.70
2018-09-04T01:01:37.793Z,56.28
2018-09-04T01:02:41.135Z,58.07
2018-09-04T01:03:44.480Z,64.22
2018-09-04T01:04:48.734Z,59.20
2018-09-04T01:05:52.055Z,65.95
2018-09-04T01:06:55.518Z,60.23
2018-09-04T01:07:58.850Z,65.10
2018-09-04T01:09:02.324Z,65.83
2018-09-04T01:10:05.693Z,65.93
2018-09-04T01:11:09.025Z,61.50
2018-09-04T01:12:12.416Z,66.07
2018-09-04T01:13:15.738Z,65.78
2018-09-04T01:14:19.103Z,64.97
2018-09-04T01:15:22.442Z,67.00
2018-09-04T01:16:25.805Z,64.82
2018-09-04T01:17:29.118Z,61.98
2018-09-04T01:18:32.448Z,64.58
2018-09-04T01:19:35.800Z,56.60
2018-09-04T01:20:39.143Z,58.52
2018-09-04T01:21:42.465Z,63.87
2018-09-04T01:22:45.819Z,59.60
2018-09-04T01:23:49.147Z,62.45
2018-09-04T01:24:52.470Z,58.65
2018-09-04T01:25:55.791Z,55.85
2018-09-04T01:26:59.122Z,64.42
2018-09-04T01:28:02.486Z,66.20
2018-09-04T01:29:06.124Z,64.40
2018-09-04T01:30:09.444Z,68.00
2018-09-04T01:31:12.799Z,69.87
2018-09-04T01:32:16.170Z,69.95
2018-09-04T01:33:19.499Z,67.05
2018-09-04T01:34:22.839Z,68.07
2018-09-04T01:35:26.179Z,70.80
2018-09-04T01:36:29.501Z,69.87
2018-09-04T01:37:32.836Z,73.12
2018-09-04T01:38:36.176Z,81.40
2018-09-04T01:39:39.568Z,77.72
2018-09-04T01:40:42.882Z,73.25
2018-09-04T01:41:46.199Z,64.85
2018-09-04T01:42:49.559Z,73.55
2018-09-04T01:43:52.913Z,71.02
2018-09-04T01:44:56.287Z,67.85
2018-09-04T01:45:59.645Z,75.12
2018-09-04T01:47:02.991Z,71.97
2018-09-04T01:48:06.312Z,67.10
2018-09-04T01:49:09.674Z,72.65
2018-09-04T01:50:13.018Z,69.12
2018-09-04T01:51:16.374Z,71.80
2018-09-04T01:52:19.728Z,63.95
2018-09-04T01:53:23.063Z,65.70
2018-09-04T01:54:26.385Z,71.22
2018-09-04T01:55:29.763Z,73.28
2018-09-04T01:56:33.079Z,73.52
2018-09-04T01:57:36.404Z,69.05
2018-09-04T01:58:39.730Z,73.72
2018-09-04T01:59:43.059Z,76.53
2018-09-04T02:00:46.404Z,69.05
2018-09-04T02:01:49.786Z,69.07
2018-09-04T02:02:53.110Z,67.03
2018-09-04T02:03:56.426Z,75.32
2018-09-04T02:04:59.772Z,73.83
2018-09-04T02:06:03.134Z,84.10
2018-09-04T02:07:06.481Z,63.30
2018-09-04T02:08:09.787Z,76.15
2018-09-04T02:09:13.144Z,76.80
2018-09-04T02:10:16.480Z,81.30
2018-09-04T02:11:19.830Z,76.70
2018-09-04T02:12:23.192Z,73.15
2018-09-04T02:13:26.515Z,79.97
2018-09-04T02:14:29.835Z,74.22
2018-09-04T02:15:33.224Z,83.37
2018-09-04T02:16:36.619Z,86.17
2018-09-04T02:17:39.931Z,81.75
2018-09-04T02:18:43.266Z,80.35
2018-09-04T02:19:46.587Z,82.65
2018-09-04T02:20:49.962Z,85.10
2018-09-04T02:21:53.280Z,90.25
2018-09-04T02:22:56.629Z,87.05
2018-09-04T02:23:59.950Z,94.97
2018-09-04T02:25:03.296Z,83.15
2018-09-04T02:26:06.675Z,88.15
2018-09-04T02:27:09.991Z,96.12
2018-09-04T02:28:13.308Z,86.55
2018-09-04T02:29:16.623Z,86.95
2018-09-04T02:30:19.938Z,83.03
2018-09-04T02:31:23.276Z,90.00
2018-09-04T02:32:26.602Z,100.62
2018-09-04T02:33:29.918Z,89.95
2018-09-04T02:34:33.235Z,94.37
2018-09-04T02:35:36.551Z,91.67
2018-09-04T02:36:39.983Z,98.12
2018-09-04T02:37:43.301Z,93.33
2018-09-04T02:38:46.610Z,103.90
2018-09-04T02:39:49.968Z,91.82
2018-09-04T02:40:53.270Z,97.90
2018-09-04T02:41:56.590Z,98.97
2018-09-04T02:42:59.934Z,97.02
2018-09-04T02:44:03.315Z,97.97
2018-09-04T02:45:06.680Z,93.62
2018-09-04T02:46:10.051Z,93.33
2018-09-04T02:47:13.367Z,87.22
2018-09-04T02:48:16.717Z,90.15
2018-09-04T02:49:20.042Z,91.02
2018-09-04T02:50:23.351Z,97.53
2018-09-04T02:51:26.678Z,92.00
2018-09-04T02:52:30.008Z,87.95
2018-09-04T02:53:33.343Z,79.82
2018-09-04T02:54:36.695Z,86.28
2018-09-04T02:55:40.007Z,91.10
2018-09-04T02:56:43.322Z,84.28
2018-09-04T02:57:46.635Z,93.92
2018-09-04T02:58:50.035Z,82.02
2018-09-04T02:59:53.353Z,87.85
2018-09-04T03:00:56.691Z,87.20
2018-09-04T03:02:00.023Z,89.05
2018-09-04T03:03:03.334Z,87.08
2018-09-04T03:04:06.676Z,83.95
2018-09-04T03:05:10.029Z,87.60
2018-09-04T03:06:13.422Z,80.60
2018-09-04T03:07:16.721Z,88.72
2018-09-04T03:08:20.040Z,89.13
2018-09-04T03:09:23.422Z,87.60
2018-09-04T03:10:26.727Z,88.82
2018-09-04T03:11:30.038Z,83.82
2018-09-04T03:12:33.360Z,84.87
2018-09-04T03:13:36.771Z,82.80
2018-09-04T03:14:40.055Z,91.57
2018-09-04T03:15:43.380Z,85.20
2018-09-04T03:16:46.695Z,76.90
2018-09-04T03:17:50.031Z,75.52
2018-09-04T03:18:53.389Z,82.62
2018-09-04T03:19:56.706Z,84.77
2018-09-04T03:21:00.022Z,87.15
2018-09-04T03:22:03.398Z,84.22
2018-09-04T03:23:07.008Z,86.97
2018-09-04T03:24:10.338Z,88.07
2018-09-04T03:25:13.678Z,86.78
2018-09-04T03:26:16.987Z,82.85
2018-09-04T03:27:20.331Z,84.07
2018-09-04T03:28:23.688Z,85.22
2018-09-04T03:29:27.004Z,81.97
2018-09-04T03:30:30.467Z,86.20
2018-09-04T03:31:33.779Z,83.40
2018-09-04T03:32:37.095Z,83.25
2018-09-04T03:33:40.431Z,90.67
2018-09-04T03:34:43.754Z,101.55
2018-09-04T03:35:47.108Z,89.28
2018-09-04T03:36:50.425Z,100.25
2018-09-04T03:37:53.759Z,95.20
2018-09-04T03:38:57.166Z,91.80
2018-09-04T03:40:00.478Z,91.20
2018-09-04T03:41:03.789Z,101.10
2018-09-04T03:42:07.106Z,93.90
2018-09-04T03:43:10.455Z,91.90
2018-09-04T03:44:13.865Z,101.55
2018-09-04T03:45:17.158Z,105.45
2018-09-04T03:46:20.485Z,100.50
2018-09-04T03:47:23.847Z,98.95
2018-09-04T03:48:27.179Z,100.02
2018-09-04T03:49:30.505Z,101.70
2018-09-04T03:50:33.842Z,94.07
2018-09-04T03:51:37.184Z,111.97
2018-09-04T03:52:40.505Z,101.35
2018-09-04T03:53:43.892Z,108.80
2018-09-04T03:54:47.210Z,99.75
2018-09-04T03:55:50.522Z,95.87
2018-09-04T03:56:53.834Z,96.02
2018-09-04T03:57:57.146Z,111.68
2018-09-04T03:59:00.549Z,104.97
2018-09-04T04:00:03.962Z,110.85
2018-09-04T04:01:07.363Z,104.07
2018-09-04T04:02:10.715Z,102.17
2018-09-04T04:03:14.060Z,109.48
2018-09-04T04:04:17.412Z,110.63
2018-09-04T04:05:20.757Z,109.15
2018-09-04T04:06:24.125Z,105.58
2018-09-04T04:07:27.484Z,102.65
2018-09-04T04:08:30.812Z,113.28
2018-09-04T04:09:34.166Z,112.90
2018-09-04T04:10:37.528Z,120.00
2018-09-04T04:11:40.839Z,106.20
2018-09-04T04:12:44.195Z,117.20
2018-09-04T04:13:47.567Z,110.00
2018-09-04T04:14:50.890Z,108.35
2018-09-04T04:15:54.207Z,98.82
2018-09-04T04:16:57.549Z,113.68
2018-09-04T04:18:00.867Z,112.25
2018-09-04T04:19:04.282Z,105.92
2018-09-04T04:20:07.642Z,101.20
2018-09-04T04:21:11.003Z,103.35
2018-09-04T04:22:14.336Z,105.12
2018-09-04T04:23:17.677Z,111.28
2018-09-04T04:24:21.027Z,104.10
2018-09-04T04:25:24.350Z,107.85
2018-09-04T04:26:27.650Z,107.35
2018-09-04T04:27:31.036Z,104.75
2018-09-04T04:28:34.367Z,118.15
2018-09-04T04:29:37.711Z,119.55
2018-09-04T04:30:41.032Z,99.13
2018-09-04T04:31:44.395Z,105.35
2018-09-04T04:32:47.746Z,112.45
2018-09-04T04:33:51.510Z,110.12
2018-09-04T04:34:54.888Z,114.80
2018-09-04T04:35:58.236Z,110.35
2018-09-04T04:37:01.619Z,110.00
2018-09-04T04:38:04.976Z,116.12
2018-09-04T04:39:09.138Z,122.37
2018-09-04T04:40:12.637Z,104.32
2018-09-04T04:41:15.852Z,110.42
2018-09-04T04:42:19.215Z,107.60
2018-09-04T04:43:22.598Z,107.58
2018-09-04T04:44:25.918Z,110.00
2018-09-04T04:45:29.239Z,114.25
2018-09-04T04:46:32.556Z,125.82
2018-09-04T04:47:41.443Z,102.15
2018-09-04T04:48:44.754Z,109.40
2018-09-04T04:49:48.107Z,110.40
2018-09-04T04:50:51.430Z,103.92
2018-09-04T04:51:54.750Z,108.17
2018-09-04T04:52:58.079Z,114.40
2018-09-04T04:54:01.428Z,107.05
2018-09-04T04:55:04.822Z,100.18
2018-09-04T04:56:08.172Z,114.65
2018-09-04T04:57:11.506Z,102.30
2018-09-04T04:58:14.832Z,112.55
2018-09-04T04:59:18.190Z,100.67
2018-09-04T05:00:21.551Z,95.28
2018-09-04T05:01:24.892Z,101.35
2018-09-04T05:02:28.223Z,114.28
2018-09-04T05:03:31.543Z,99.17
2018-09-04T05:04:34.913Z,100.55
2018-09-04T05:05:38.235Z,96.25
2018-09-04T05:06:41.566Z,92.62
2018-09-04T05:07:44.872Z,81.45
2018-09-04T05:08:48.187Z,122.10
2018-09-04T05:09:51.570Z,93.75
2018-09-04T05:10:54.939Z,95.55
2018-09-04T05:11:58.292Z,82.12
2018-09-04T05:13:01.627Z,93.15
2018-09-04T05:14:04.936Z,96.80
2018-09-04T05:15:08.335Z,93.87
2018-09-04T05:16:11.662Z,82.95
2018-09-04T05:17:15.058Z,85.03
2018-09-04T05:18:18.410Z,106.00
2018-09-04T05:19:21.774Z,90.07
2018-09-04T05:20:26.762Z,82.12
2018-09-04T05:21:30.115Z,92.08
2018-09-04T05:22:33.475Z,93.22
2018-09-04T05:23:36.821Z,90.77
2018-09-04T05:24:40.159Z,90.92
2018-09-04T05:25:43.501Z,84.55
2018-09-04T05:26:46.865Z,89.15
2018-09-04T05:27:50.230Z,87.20
2018-09-04T05:28:53.595Z,98.20
2018-09-04T05:29:56.951Z,89.05
2018-09-04T05:31:00.307Z,95.72
2018-09-04T05:32:14.312Z,105.03
2018-09-04T05:33:22.667Z,100.55
2018-09-04T05:34:26.223Z,79.95
2018-09-04T05:35:33.708Z,82.02
2018-09-04T05:36:37.083Z,80.17
2018-09-04T05:37:41.099Z,83.15
2018-09-04T05:38:44.423Z,76.60
2018-09-04T05:39:47.744Z,84.45
2018-09-04T05:40:51.072Z,94.25
2018-09-04T05:41:54.403Z,83.85
2018-09-04T05:43:00.217Z,78.75
2018-09-04T05:44:03.559Z,81.08
2018-09-04T05:45:07.784Z,79.92
2018-09-04T05:46:15.575Z,76.10
2018-09-04T05:47:18.955Z,79.27
2018-09-04T05:48:22.292Z,82.47
2018-09-04T05:49:29.711Z,76.15
2018-09-04T05:50:33.130Z,91.65
2018-09-04T05:51:36.451Z,77.35
2018-09-04T05:52:39.770Z,80.17
2018-09-04T05:53:43.122Z,78.75
2018-09-04T05:54:46.443Z,90.07
2018-09-04T05:55:49.877Z,71.50
2018-09-04T05:56:53.210Z,71.25
2018-09-04T05:57:56.790Z,76.87
2018-09-04T05:59:00.180Z,69.95
2018-09-04T06:00:06.355Z,71.85
2018-09-04T06:01:09.718Z,79.37
2018-09-04T06:02:13.051Z,68.90
2018-09-04T06:03:16.403Z,69.07
2018-09-04T06:04:19.714Z,75.40
2018-09-04T06:05:23.331Z,69.35
2018-09-04T06:06:26.709Z,66.95
2018-09-04T06:07:30.051Z,74.87
2018-09-04T06:08:33.370Z,81.90
2018-09-04T06:09:36.682Z,71.22
2018-09-04T06:10:40.011Z,72.78
2018-09-04T06:11:43.682Z,66.35
2018-09-04T06:12:47.001Z,61.83
2018-09-04T06:13:50.456Z,62.90
2018-09-04T06:14:53.805Z,71.85
2018-09-04T06:15:57.179Z,78.57
2018-09-04T06:17:00.696Z,77.83
2018-09-04T06:18:04.093Z,70.70
2018-09-04T06:19:07.440Z,65.03
2018-09-04T06:20:10.931Z,70.78
2018-09-04T06:21:14.187Z,72.15
2018-09-04T06:22:17.511Z,77.92
2018-09-04T06:23:20.894Z,69.20
2018-09-04T06:24:24.223Z,85.60
2018-09-04T06:25:27.593Z,92.05
2018-09-04T06:26:30.918Z,71.07
2018-09-04T06:27:34.287Z,76.85
2018-09-04T06:28:37.747Z,77.58
2018-09-04T06:29:41.138Z,80.85
2018-09-04T06:30:44.498Z,83.05
2018-09-04T06:31:47.827Z,73.07
2018-09-04T06:32:51.170Z,77.67
2018-09-04T06:33:54.629Z,69.85
2018-09-04T06:34:57.992Z,70.92
2018-09-04T06:36:01.319Z,71.62
2018-09-04T06:37:04.770Z,74.10
2018-09-04T06:38:08.102Z,74.00
2018-09-04T06:39:11.973Z,85.47
2018-09-04T06:40:15.291Z,73.62
2018-09-04T06:41:18.657Z,69.22
2018-09-04T06:42:22.001Z,67.55
2018-09-04T06:43:25.374Z,73.75
2018-09-04T06:44:28.747Z,81.78
2018-09-04T06:45:32.127Z,66.47
2018-09-04T06:46:35.527Z,74.37
2018-09-04T06:47:38.874Z,75.60
2018-09-04T06:48:42.211Z,72.95
2018-09-04T06:49:45.577Z,80.35
2018-09-04T06:50:48.906Z,67.20
2018-09-04T06:51:52.282Z,67.20
2018-09-04T06:52:55.614Z,66.63
2018-09-04T06:53:58.942Z,62.83
2018-09-04T06:55:02.275Z,66.90
2018-09-04T06:56:06.295Z,64.82
2018-09-04T06:57:09.685Z,77.05
2018-09-04T06:58:13.354Z,73.20
2018-09-04T06:59:16.687Z,72.70
2018-09-04T07:00:20.014Z,75.78
2018-09-04T07:01:23.375Z,67.80
2018-09-04T07:02:26.752Z,75.28
2018-09-04T07:03:30.079Z,66.53
2018-09-04T07:04:33.411Z,79.97
2018-09-04T07:05:36.736Z,71.35
2018-09-04T07:06:40.071Z,72.72
2018-09-04T07:07:43.463Z,69.22
2018-09-04T07:08:46.803Z,74.50
2018-09-04T07:09:50.123Z,67.20
2018-09-04T07:10:53.475Z,76.17
2018-09-04T07:11:56.835Z,70.37
2018-09-04T07:13:00.171Z,66.20
2018-09-04T07:14:03.581Z,72.20
2018-09-04T07:15:07.248Z,69.90
2018-09-04T07:16:10.584Z,78.00
2018-09-04T07:17:13.961Z,66.42
2018-09-04T07:18:17.323Z,68.57
2018-09-04T07:19:20.982Z,79.45
2018-09-04T07:20:24.323Z,67.55
2018-09-04T07:21:34.359Z,70.35
2018-09-04T07:22:37.745Z,63.78
2018-09-04T07:23:41.091Z,71.60
2018-09-04T07:24:44.438Z,67.10
2018-09-04T07:25:47.951Z,67.97
2018-09-04T07:26:51.333Z,72.27
2018-09-04T07:27:54.675Z,72.40
2018-09-04T07:28:58.343Z,66.70
2018-09-04T07:30:01.694Z,70.73
2018-09-04T07:31:05.152Z,67.23
2018-09-04T07:32:08.509Z,69.60
2018-09-04T07:33:11.907Z,64.77
2018-09-04T07:34:15.219Z,70.37
2018-09-04T07:35:18.590Z,64.90
2018-09-04T07:36:21.972Z,67.80
2018-09-04T07:37:25.264Z,64.43
2018-09-04T07:38:28.635Z,67.87
2018-09-04T07:39:32.716Z,62.93
2018-09-04T07:40:36.038Z,67.23
2018-09-04T07:41:39.562Z,62.33
2018-09-04T07:42:42.885Z,59.67
2018-09-04T07:43:46.253Z,63.23
2018-09-04T07:44:49.594Z,62.47
2018-09-04T07:45:52.943Z,63.33
2018-09-04T07:46:56.258Z,61.10
2018-09-04T07:47:59.580Z,59.70
2018-09-04T07:49:02.978Z,58.23
2018-09-04T07:50:07.178Z,64.67
2018-09-04T07:51:10.495Z,55.93
2018-09-04T07:52:13.822Z,57.63
2018-09-04T07:53:17.204Z,75.10
2018-09-04T07:54:20.531Z,61.93
2018-09-04T07:55:24.092Z,64.03
2018-09-04T07:56:27.430Z,56.47
2018-09-04T07:57:30.775Z,55.67
2018-09-04T07:58:34.156Z,63.13
2018-09-04T07:59:37.560Z,61.07
2018-09-04T08:00:40.903Z,57.83
2018-09-04T08:01:44.227Z,66.57
2018-09-04T08:02:47.540Z,55.90
2018-09-04T08:03:50.875Z,58.63
2018-09-04T08:04:54.203Z,56.30
2018-09-04T08:05:57.515Z,57.57
2018-09-04T08:07:00.852Z,61.87
2018-09-04T08:08:04.229Z,54.47
2018-09-04T08:09:08.312Z,59.37
2018-09-04T08:10:11.648Z,51.00
2018-09-04T08:11:15.054Z,56.60
2018-09-04T08:12:18.363Z,56.37
2018-09-04T08:13:21.726Z,59.87
2018-09-04T08:14:25.474Z,53.10
2018-09-04T08:15:28.787Z,58.00
2018-09-04T08:16:32.133Z,58.73
2018-09-04T08:17:35.552Z,61.20
2018-09-04T08:18:38.899Z,61.63
2018-09-04T08:19:42.211Z,57.87
2018-09-04T08:20:45.551Z,63.57
2018-09-04T08:21:48.870Z,56.27
2018-09-04T08:22:54.279Z,56.60
2018-09-04T08:23:57.586Z,58.83
2018-09-04T08:25:00.911Z,58.03
2018-09-04T08:26:04.304Z,63.50
2018-09-04T08:27:07.631Z,56.80
2018-09-04T08:28:10.968Z,59.00
2018-09-04T08:29:14.292Z,59.60
2018-09-04T08:30:17.643Z,62.23
2018-09-04T08:31:20.994Z,59.20
2018-09-04T08:32:24.311Z,57.53
2018-09-04T08:33:27.629Z,63.80
2018-09-04T08:34:33.966Z,62.87
2018-09-04T08:35:37.313Z,59.87
2018-09-04T08:36:40.622Z,62.53
2018-09-04T08:37:44.003Z,60.13
2018-09-04T08:38:49.820Z,54.97
2018-09-04T08:39:53.152Z,63.33
2018-09-04T08:40:56.458Z,64.27
2018-09-04T08:41:59.767Z,51.97
2018-09-04T08:43:03.083Z,60.70
2018-09-04T08:44:06.472Z,61.93
2018-09-04T08:45:09.794Z,49.77
2018-09-04T08:46:13.103Z,62.03
2018-09-04T08:47:16.527Z,57.53
2018-09-04T08:48:21.275Z,53.60
2018-09-04T08:49:24.619Z,52.20
2018-09-04T08:50:29.390Z,51.97
2018-09-04T08:51:32.766Z,52.97
2018-09-04T08:52:36.081Z,49.00
2018-09-04T08:53:39.441Z,48.10
2018-09-04T08:54:42.802Z,50.50
2018-09-04T08:55:46.258Z,53.40
2018-09-04T08:56:49.594Z,49.40
2018-09-04T08:57:52.964Z,48.37
2018-09-04T08:58:56.274Z,45.47
2018-09-04T08:59:59.615Z,48.77
2018-09-04T09:01:02.934Z,44.17
2018-09-04T09:02:06.271Z,45.40
2018-09-04T09:03:09.738Z,48.43
2018-09-04T09:04:13.046Z,49.77
2018-09-04T09:05:16.587Z,42.80
2018-09-04T09:06:19.911Z,48.17
2018-09-04T09:07:23.263Z,48.07
2018-09-04T09:08:26.699Z,42.73
2018-09-04T09:09:30.065Z,44.50
2018-09-04T09:10:33.455Z,47.20
2018-09-04T09:11:36.792Z,43.57
2018-09-04T09:12:40.146Z,44.63
2018-09-04T09:13:43.456Z,44.00
2018-09-04T09:14:46.798Z,40.20
2018-09-04T09:15:50.444Z,43.87
2018-09-04T09:16:53.791Z,42.10
2018-09-04T09:17:57.134Z,46.60
2018-09-04T09:19:00.472Z,42.80
2018-09-04T09:20:03.807Z,37.63
2018-09-04T09:21:07.156Z,45.47
2018-09-04T09:22:10.514Z,50.50
2018-09-04T09:23:13.930Z,44.47
2018-09-04T09:24:17.273Z,36.80
2018-09-04T09:25:20.692Z,38.63
2018-09-04T09:26:24.038Z,38.87
2018-09-04T09:27:27.373Z,34.13
2018-09-04T09:28:30.707Z,38.90
2018-09-04T09:29:34.087Z,39.10
2018-09-04T09:30:37.403Z,36.63
2018-09-04T09:31:40.766Z,35.33
2018-09-04T09:32:44.113Z,36.30
2018-09-04T09:33:47.735Z,37.63
2018-09-04T09:34:51.036Z,36.47
2018-09-04T09:35:54.350Z,30.97
2018-09-04T09:36:57.752Z,31.50
2018-09-04T09:38:01.356Z,34.33
2018-09-04T09:39:06.209Z,35.40
2018-09-04T09:45:41.852Z,35.20
2018-09-04T09:46:45.370Z,34.77
2018-09-04T09:47:50.088Z,34.03
2018-09-04T09:48:53.613Z,34.73
2018-09-04T09:49:57.192Z,31.17
2018-09-04T09:51:00.740Z,29.50
2018-09-04T09:52:04.238Z,31.27
2018-09-04T09:53:07.827Z,35.00
2018-09-04T09:54:11.275Z,33.03
2018-09-04T09:55:14.799Z,27.10
2018-09-04T09:56:18.381Z,29.50
2018-09-04T09:57:21.894Z,31.37
2018-09-04T09:58:25.395Z,28.27
2018-09-04T09:59:29.068Z,27.77
2018-09-04T10:00:38.531Z,28.73
2018-09-04T10:01:47.334Z,31.10
2018-09-04T10:02:55.066Z,32.17
2018-09-04T10:04:00.825Z,24.40
2018-09-04T10:05:04.514Z,26.20
2018-09-04T10:06:08.123Z,26.60
2018-09-04T10:07:11.655Z,24.90
2018-09-04T10:08:15.210Z,29.43
2018-09-04T10:09:18.694Z,26.07
2018-09-04T10:10:22.219Z,32.50
2018-09-04T10:11:25.811Z,29.73
2018-09-04T10:12:29.278Z,30.77
2018-09-04T10:13:32.858Z,39.33
2018-09-04T10:14:36.733Z,26.50
2018-09-04T10:15:40.324Z,28.90
2018-09-04T10:16:43.886Z,27.40
2018-09-04T10:17:47.480Z,22.77
2018-09-04T10:18:50.998Z,26.80
2018-09-04T10:19:54.541Z,28.17
2018-09-04T10:20:58.109Z,33.17
2018-09-04T10:22:01.797Z,25.43
2018-09-04T10:23:05.450Z,19.13
2018-09-04T10:24:08.927Z,31.23
2018-09-04T10:25:12.539Z,26.10
2018-09-04T10:26:16.161Z,22.93
2018-09-04T10:27:19.731Z,23.03
2018-09-04T10:28:23.315Z,25.47
2018-09-04T10:29:27.181Z,25.47
2018-09-04T10:30:30.711Z,20.13
2018-09-04T10:31:34.285Z,19.73
2018-09-04T10:32:37.889Z,28.80
2018-09-04T10:33:41.389Z,20.50
2018-09-04T10:34:44.922Z,20.13
2018-09-04T10:35:48.500Z,16.97
2018-09-04T10:36:52.024Z,21.30
2018-09-04T10:37:55.541Z,21.60
2018-09-04T10:39:04.311Z,18.43
2018-09-04T10:40:13.269Z,26.00
2018-09-04T10:41:16.946Z,18.83
2018-09-04T10:42:34.973Z,21.83
2018-09-04T10:43:38.488Z,21.33
2018-09-04T10:44:42.010Z,22.50
2018-09-04T10:45:50.913Z,19.43
2018-09-04T10:46:54.381Z,24.67
2018-09-04T10:47:57.919Z,22.20
2018-09-04T10:49:01.545Z,20.43
2018-09-04T10:50:05.078Z,19.77
2018-09-04T10:51:08.608Z,18.03
2018-09-04T10:52:12.232Z,18.40
2018-09-04T10:53:15.686Z,21.70
2018-09-04T10:54:19.196Z,20.40
2018-09-04T10:55:22.873Z,19.50
2018-09-04T10:56:26.409Z,24.33
2018-09-04T10:57:30.052Z,20.73
2018-09-04T10:58:33.593Z,18.40
2018-09-04T10:59:37.193Z,18.83
2018-09-04T11:00:40.756Z,17.70
2018-09-04T11:01:44.262Z,23.10
2018-09-04T11:02:47.842Z,14.50
2018-09-04T11:03:51.342Z,19.47
2018-09-04T11:04:54.908Z,17.80
2018-09-04T11:05:58.433Z,17.23
2018-09-04T11:07:02.054Z,17.97
2018-09-04T11:08:05.655Z,19.00
2018-09-04T11:09:11.310Z,19.00
2018-09-04T11:10:14.840Z,19.30
2018-09-04T11:11:18.657Z,16.73
2018-09-04T11:12:22.203Z,18.33
2018-09-04T11:13:25.772Z,17.53
2018-09-04T11:14:29.321Z,16.93
2018-09-04T11:15:32.797Z,18.50
2018-09-04T11:16:36.449Z,15.97
2018-09-04T11:17:40.000Z,17.53
2018-09-04T11:18:43.527Z,15.40
2018-09-04T11:19:47.101Z,19.70
2018-09-04T11:20:50.668Z,16.40
2018-09-04T11:21:54.220Z,17.77
2018-09-04T11:22:57.676Z,16.80
2018-09-04T11:24:01.183Z,15.33
2018-09-04T11:25:04.767Z,20.00
2018-09-04T11:26:08.354Z,18.50
2018-09-04T11:27:11.915Z,20.53
2018-09-04T11:28:15.401Z,17.23
2018-09-04T11:29:18.917Z,18.23
2018-09-04T11:30:22.401Z,20.07
2018-09-04T11:31:26.013Z,15.37
2018-09-04T11:32:29.634Z,15.33
2018-09-04T11:33:33.175Z,18.50
2018-09-04T11:34:36.662Z,17.43
2018-09-04T11:35:40.235Z,15.00
2018-09-04T11:36:43.796Z,15.47
2018-09-04T11:37:47.295Z,19.67
2018-09-04T11:38:50.794Z,46.40
2018-09-04T11:39:54.353Z,15.47
2018-09-04T11:40:57.834Z,18.33
2018-09-04T11:42:01.354Z,18.10
2018-09-04T11:43:04.941Z,15.30
2018-09-04T11:44:08.502Z,16.73
2018-09-04T11:45:12.079Z,17.33
2018-09-04T11:46:15.695Z,16.93
2018-09-04T11:47:19.201Z,14.57
2018-09-04T11:48:22.728Z,18.27
2018-09-04T11:49:26.358Z,18.20
2018-09-04T11:50:29.890Z,16.60
2018-09-04T11:51:33.481Z,13.80
2018-09-04T11:52:37.279Z,16.93
2018-09-04T11:53:40.769Z,16.00
2018-09-04T11:54:44.324Z,22.30
2018-09-04T11:55:47.902Z,15.83
2018-09-04T11:56:51.583Z,18.00
2018-09-04T11:57:55.079Z,14.90
2018-09-04T11:58:58.646Z,16.03
2018-09-04T12:00:02.502Z,17.57
2018-09-04T12:01:13.815Z,14.27
2018-09-04T12:02:22.676Z,16.60
2018-09-04T12:03:26.348Z,15.77
2018-09-04T12:04:29.890Z,14.80
2018-09-04T12:05:33.377Z,20.03
2018-09-04T12:06:36.939Z,15.07
2018-09-04T12:07:40.406Z,14.90
2018-09-04T12:08:43.962Z,14.37
2018-09-04T12:09:48.044Z,15.57
2018-09-04T12:10:53.028Z,20.90
2018-09-04T12:11:56.961Z,13.90
2018-09-04T12:13:00.741Z,18.93
2018-09-04T12:14:04.322Z,19.07
2018-09-04T12:15:07.802Z,14.67
2018-09-04T12:16:11.406Z,18.80
2018-09-04T12:17:15.100Z,17.40
2018-09-04T12:18:24.505Z,15.33
2018-09-04T12:20:36.396Z,14.00
2018-09-04T12:21:39.930Z,13.00
2018-09-04T12:22:44.182Z,14.23
2018-09-04T12:23:47.765Z,17.83
2018-09-04T12:24:52.019Z,22.53
2018-09-04T12:25:56.886Z,14.80
2018-09-04T12:27:00.448Z,13.80
2018-09-04T12:28:04.223Z,15.10
2018-09-04T12:29:07.804Z,14.07
2018-09-04T12:30:11.851Z,18.40
2018-09-04T12:31:15.430Z,18.60
2018-09-04T12:32:18.963Z,14.23
2018-09-04T12:33:22.818Z,13.30
2018-09-04T12:34:26.523Z,14.60
2018-09-04T12:35:30.597Z,13.70
2018-09-04T12:36:34.435Z,13.80
2018-09-04T12:37:37.986Z,12.43
2018-09-04T12:38:42.805Z,14.70
2018-09-04T12:40:00.771Z,13.47
2018-09-04T12:41:07.004Z,13.20
2018-09-04T12:42:10.627Z,14.50
2018-09-04T12:43:14.155Z,14.40
2018-09-04T12:44:17.764Z,17.93
2018-09-04T12:45:21.292Z,12.50
2018-09-04T12:46:29.057Z,18.80
2018-09-04T12:47:32.796Z,14.33
2018-09-04T12:48:36.605Z,15.00
2018-09-04T12:49:40.154Z,17.67
2018-09-04T12:50:43.923Z,12.03
2018-09-04T12:51:47.556Z,25.73
2018-09-04T12:52:51.273Z,15.73
2018-09-04T12:53:54.862Z,15.50
2018-09-04T12:54:58.458Z,18.87
2018-09-04T12:56:02.127Z,12.80
2018-09-04T12:57:06.735Z,15.70
2018-09-04T12:58:10.356Z,13.60
2018-09-04T12:59:13.952Z,14.87
2018-09-04T13:00:18.935Z,13.63
2018-09-04T13:01:22.473Z,13.60
2018-09-04T13:02:26.016Z,12.33
2018-09-04T13:03:30.052Z,18.47
2018-09-04T13:04:33.618Z,13.37
2018-09-04T13:05:37.449Z,11.67
2018-09-04T13:06:41.083Z,10.70
2018-09-04T13:07:44.817Z,12.47
2018-09-04T13:08:48.333Z,16.27
2018-09-04T13:09:52.111Z,11.40
2018-09-04T13:10:55.620Z,12.00
2018-09-04T13:11:59.165Z,15.47
2018-09-04T13:13:02.784Z,14.00
2018-09-04T13:14:06.655Z,14.10
2018-09-04T13:15:10.930Z,12.37
2018-09-04T13:16:14.514Z,10.37
2018-09-04T13:17:18.033Z,12.33
2018-09-04T13:18:21.598Z,10.40
2018-09-04T13:19:25.218Z,13.50
2018-09-04T13:20:28.780Z,13.20
2018-09-04T13:21:32.478Z,12.37
2018-09-04T13:22:36.107Z,15.03
2018-09-04T13:23:39.841Z,13.30
2018-09-04T13:24:43.294Z,12.37
2018-09-04T13:25:47.009Z,12.30
2018-09-04T13:26:50.556Z,13.50
2018-09-04T13:27:54.132Z,16.10
2018-09-04T13:28:57.595Z,15.10
2018-09-04T13:30:01.289Z,12.17
2018-09-04T13:31:04.892Z,12.90
2018-09-04T13:32:08.457Z,11.83
2018-09-04T13:33:12.041Z,19.63
2018-09-04T13:34:15.680Z,12.53
2018-09-04T13:35:19.307Z,19.93
2018-09-04T13:36:22.918Z,18.40
2018-09-04T13:37:26.448Z,18.40
2018-09-04T13:38:29.942Z,12.73
2018-09-04T13:39:33.480Z,15.73
2018-09-04T13:40:37.179Z,16.20
2018-09-04T13:41:40.723Z,11.23
2018-09-04T13:42:44.379Z,12.03
2018-09-04T13:43:48.066Z,16.60